sensor_id;sensor_type;location;lat;lon;timestamp;temperature;humidity
40085;DHT22;25786;51.504;7.344;2023-06-14T00:00:35;19.60;51.10
40085;DHT22;25786;51.504;7.344;2023-06-14T00:03:01;19.70;49.80
40085;DHT22;25786;51.504;7.344;2023-06-14T00:05:29;19.60;50.10
40085;DHT22;25786;51.504;7.344;2023-06-14T00:07:55;19.60;50.70
40085;DHT22;25786;51.504;7.344;2023-06-14T00:10:20;19.50;51.10
40085;DHT22;25786;51.504;7.344;2023-06-14T00:12:46;19.50;50.00
40085;DHT22;25786;51.504;7.344;2023-06-14T00:15:11;19.50;50.70
40085;DHT22;25786;51.504;7.344;2023-06-14T00:17:37;19.30;51.10
40085;DHT22;25786;51.504;7.344;2023-06-14T00:20:04;19.30;51.30
40085;DHT22;25786;51.504;7.344;2023-06-14T00:22:33;19.20;51.50
40085;DHT22;25786;51.504;7.344;2023-06-14T00:24:58;19.10;51.50
40085;DHT22;25786;51.504;7.344;2023-06-14T00:27:24;19.10;51.60
40085;DHT22;25786;51.504;7.344;2023-06-14T00:29:50;19.00;51.50
40085;DHT22;25786;51.504;7.344;2023-06-14T00:32:15;19.00;51.90
40085;DHT22;25786;51.504;7.344;2023-06-14T00:34:41;19.00;51.50
40085;DHT22;25786;51.504;7.344;2023-06-14T00:37:06;19.00;51.40
40085;DHT22;25786;51.504;7.344;2023-06-14T00:39:32;19.00;51.90
40085;DHT22;25786;51.504;7.344;2023-06-14T00:41:57;19.00;51.60
40085;DHT22;25786;51.504;7.344;2023-06-14T00:44:24;19.00;51.50
40085;DHT22;25786;51.504;7.344;2023-06-14T00:46:49;19.00;51.50
40085;DHT22;25786;51.504;7.344;2023-06-14T00:49:15;19.00;51.70
40085;DHT22;25786;51.504;7.344;2023-06-14T00:51:44;19.00;51.90
40085;DHT22;25786;51.504;7.344;2023-06-14T00:54:10;19.00;52.70
40085;DHT22;25786;51.504;7.344;2023-06-14T00:56:36;18.90;52.00
40085;DHT22;25786;51.504;7.344;2023-06-14T00:59:02;18.90;51.90
40085;DHT22;25786;51.504;7.344;2023-06-14T01:01:28;18.80;53.00
40085;DHT22;25786;51.504;7.344;2023-06-14T01:03:53;19.00;51.40
40085;DHT22;25786;51.504;7.344;2023-06-14T01:08:57;18.90;51.30
40085;DHT22;25786;51.504;7.344;2023-06-14T01:11:31;18.90;51.20
40085;DHT22;25786;51.504;7.344;2023-06-14T01:13:58;18.90;51.00
40085;DHT22;25786;51.504;7.344;2023-06-14T01:16:25;18.80;51.20
40085;DHT22;25786;51.504;7.344;2023-06-14T01:18:51;18.70;51.30
40085;DHT22;25786;51.504;7.344;2023-06-14T01:21:24;18.60;51.40
40085;DHT22;25786;51.504;7.344;2023-06-14T01:23:50;18.60;51.40
40085;DHT22;25786;51.504;7.344;2023-06-14T01:26:20;18.50;52.10
40085;DHT22;25786;51.504;7.344;2023-06-14T01:28:45;18.50;51.90
40085;DHT22;25786;51.504;7.344;2023-06-14T01:31:16;18.50;51.80
40085;DHT22;25786;51.504;7.344;2023-06-14T01:33:42;18.40;52.20
40085;DHT22;25786;51.504;7.344;2023-06-14T01:36:08;18.40;52.50
40085;DHT22;25786;51.504;7.344;2023-06-14T01:38:34;18.40;52.70
40085;DHT22;25786;51.504;7.344;2023-06-14T01:41:01;18.50;51.60
40085;DHT22;25786;51.504;7.344;2023-06-14T01:43:28;18.50;51.70
40085;DHT22;25786;51.504;7.344;2023-06-14T01:45:54;18.50;52.50
40085;DHT22;25786;51.504;7.344;2023-06-14T01:48:21;18.40;51.80
40085;DHT22;25786;51.504;7.344;2023-06-14T01:50:47;18.40;51.60
40085;DHT22;25786;51.504;7.344;2023-06-14T01:53:13;18.40;52.00
40085;DHT22;25786;51.504;7.344;2023-06-14T01:55:39;18.40;51.70
40085;DHT22;25786;51.504;7.344;2023-06-14T01:58:08;18.30;52.30
40085;DHT22;25786;51.504;7.344;2023-06-14T02:00:34;18.30;52.00
40085;DHT22;25786;51.504;7.344;2023-06-14T02:03:00;18.30;51.90
40085;DHT22;25786;51.504;7.344;2023-06-14T02:05:25;18.30;52.30
40085;DHT22;25786;51.504;7.344;2023-06-14T02:07:51;18.10;52.40
40085;DHT22;25786;51.504;7.344;2023-06-14T02:10:18;18.10;52.40
40085;DHT22;25786;51.504;7.344;2023-06-14T02:12:44;18.10;52.30
40085;DHT22;25786;51.504;7.344;2023-06-14T02:15:09;17.90;52.90
40085;DHT22;25786;51.504;7.344;2023-06-14T02:17:45;18.00;52.50
40085;DHT22;25786;51.504;7.344;2023-06-14T02:20:12;18.10;52.40
40085;DHT22;25786;51.504;7.344;2023-06-14T02:22:38;18.00;52.50
40085;DHT22;25786;51.504;7.344;2023-06-14T02:25:03;17.90;52.70
40085;DHT22;25786;51.504;7.344;2023-06-14T02:27:29;17.90;53.30
40085;DHT22;25786;51.504;7.344;2023-06-14T02:29:54;18.00;52.30
40085;DHT22;25786;51.504;7.344;2023-06-14T02:32:20;17.80;53.20
40085;DHT22;25786;51.504;7.344;2023-06-14T02:34:45;17.90;52.20
40085;DHT22;25786;51.504;7.344;2023-06-14T02:37:17;17.90;52.50
40085;DHT22;25786;51.504;7.344;2023-06-14T02:39:43;17.80;52.70
40085;DHT22;25786;51.504;7.344;2023-06-14T02:42:08;17.70;52.60
40085;DHT22;25786;51.504;7.344;2023-06-14T02:44:34;17.60;53.10
40085;DHT22;25786;51.504;7.344;2023-06-14T02:47:00;17.60;53.30
40085;DHT22;25786;51.504;7.344;2023-06-14T02:49:26;17.60;53.00
40085;DHT22;25786;51.504;7.344;2023-06-14T02:51:51;17.50;53.30
40085;DHT22;25786;51.504;7.344;2023-06-14T02:54:17;17.60;53.30
40085;DHT22;25786;51.504;7.344;2023-06-14T02:56:42;17.60;53.40
40085;DHT22;25786;51.504;7.344;2023-06-14T02:59:07;17.50;53.20
40085;DHT22;25786;51.504;7.344;2023-06-14T03:01:34;17.50;53.50
40085;DHT22;25786;51.504;7.344;2023-06-14T03:04:00;17.40;53.50
40085;DHT22;25786;51.504;7.344;2023-06-14T03:06:27;17.20;53.80
40085;DHT22;25786;51.504;7.344;2023-06-14T03:08:55;17.10;54.20
40085;DHT22;25786;51.504;7.344;2023-06-14T03:11:22;17.10;54.30
40085;DHT22;25786;51.504;7.344;2023-06-14T03:13:47;17.10;54.30
40085;DHT22;25786;51.504;7.344;2023-06-14T03:16:13;17.00;54.60
40085;DHT22;25786;51.504;7.344;2023-06-14T03:18:39;17.10;54.50
40085;DHT22;25786;51.504;7.344;2023-06-14T03:21:04;17.00;54.80
40085;DHT22;25786;51.504;7.344;2023-06-14T03:23:30;17.00;54.80
40085;DHT22;25786;51.504;7.344;2023-06-14T03:25:56;16.80;55.40
40085;DHT22;25786;51.504;7.344;2023-06-14T03:28:22;16.90;55.20
40085;DHT22;25786;51.504;7.344;2023-06-14T03:30:47;16.90;55.50
40085;DHT22;25786;51.504;7.344;2023-06-14T03:33:12;16.80;55.50
40085;DHT22;25786;51.504;7.344;2023-06-14T03:35:38;16.80;55.40
40085;DHT22;25786;51.504;7.344;2023-06-14T03:38:04;16.80;55.60
40085;DHT22;25786;51.504;7.344;2023-06-14T03:40:30;16.80;55.50
40085;DHT22;25786;51.504;7.344;2023-06-14T03:42:56;16.80;55.50
40085;DHT22;25786;51.504;7.344;2023-06-14T03:45:21;16.60;56.00
40085;DHT22;25786;51.504;7.344;2023-06-14T03:47:47;16.60;56.50
40085;DHT22;25786;51.504;7.344;2023-06-14T03:50:12;16.50;56.40
40085;DHT22;25786;51.504;7.344;2023-06-14T03:52:38;16.50;56.90
40085;DHT22;25786;51.504;7.344;2023-06-14T03:55:04;16.60;56.60
40085;DHT22;25786;51.504;7.344;2023-06-14T03:57:29;16.60;56.60
40085;DHT22;25786;51.504;7.344;2023-06-14T03:59:55;16.60;57.10
40085;DHT22;25786;51.504;7.344;2023-06-14T04:02:21;16.60;56.80
40085;DHT22;25786;51.504;7.344;2023-06-14T04:04:47;16.50;56.70
40085;DHT22;25786;51.504;7.344;2023-06-14T04:07:14;16.50;56.30
40085;DHT22;25786;51.504;7.344;2023-06-14T04:09:39;16.50;57.00
40085;DHT22;25786;51.504;7.344;2023-06-14T04:12:05;16.40;57.00
40085;DHT22;25786;51.504;7.344;2023-06-14T04:14:31;16.40;57.70
40085;DHT22;25786;51.504;7.344;2023-06-14T04:16:58;16.20;58.20
40085;DHT22;25786;51.504;7.344;2023-06-14T04:19:23;16.20;58.00
40085;DHT22;25786;51.504;7.344;2023-06-14T04:21:49;16.20;58.50
40085;DHT22;25786;51.504;7.344;2023-06-14T04:24:15;16.30;58.80
40085;DHT22;25786;51.504;7.344;2023-06-14T04:26:41;16.40;58.30
40085;DHT22;25786;51.504;7.344;2023-06-14T04:29:06;16.40;58.30
40085;DHT22;25786;51.504;7.344;2023-06-14T04:31:32;16.40;59.00
40085;DHT22;25786;51.504;7.344;2023-06-14T04:34:03;16.40;58.30
40085;DHT22;25786;51.504;7.344;2023-06-14T04:36:34;16.50;57.40
40085;DHT22;25786;51.504;7.344;2023-06-14T04:39:05;16.50;57.80
40085;DHT22;25786;51.504;7.344;2023-06-14T04:41:31;16.50;57.70
40085;DHT22;25786;51.504;7.344;2023-06-14T04:43:57;16.60;57.70
40085;DHT22;25786;51.504;7.344;2023-06-14T04:46:23;16.60;57.90
40085;DHT22;25786;51.504;7.344;2023-06-14T04:48:49;16.70;57.70
40085;DHT22;25786;51.504;7.344;2023-06-14T04:51:15;16.80;57.60
40085;DHT22;25786;51.504;7.344;2023-06-14T04:53:41;16.80;57.30
40085;DHT22;25786;51.504;7.344;2023-06-14T04:56:09;16.80;57.70
40085;DHT22;25786;51.504;7.344;2023-06-14T04:58:35;16.90;57.20
40085;DHT22;25786;51.504;7.344;2023-06-14T05:01:00;17.00;57.40
40085;DHT22;25786;51.504;7.344;2023-06-14T05:03:27;17.00;57.00
40085;DHT22;25786;51.504;7.344;2023-06-14T05:05:52;17.00;56.90
40085;DHT22;25786;51.504;7.344;2023-06-14T05:08:18;17.00;57.40
40085;DHT22;25786;51.504;7.344;2023-06-14T05:10:44;17.00;57.60
40085;DHT22;25786;51.504;7.344;2023-06-14T05:13:09;17.10;58.00
40085;DHT22;25786;51.504;7.344;2023-06-14T05:15:35;17.10;57.60
40085;DHT22;25786;51.504;7.344;2023-06-14T05:18:01;17.20;57.90
40085;DHT22;25786;51.504;7.344;2023-06-14T05:20:28;17.30;57.70
40085;DHT22;25786;51.504;7.344;2023-06-14T05:22:53;17.50;57.50
40085;DHT22;25786;51.504;7.344;2023-06-14T05:25:19;17.60;56.90
40085;DHT22;25786;51.504;7.344;2023-06-14T05:27:46;17.60;55.70
40085;DHT22;25786;51.504;7.344;2023-06-14T05:30:11;17.60;56.40
40085;DHT22;25786;51.504;7.344;2023-06-14T05:32:37;17.70;56.70
40085;DHT22;25786;51.504;7.344;2023-06-14T05:35:02;17.90;56.30
40085;DHT22;25786;51.504;7.344;2023-06-14T05:37:29;17.90;55.50
40085;DHT22;25786;51.504;7.344;2023-06-14T05:39:56;18.00;55.60
40085;DHT22;25786;51.504;7.344;2023-06-14T05:42:21;18.00;55.20
40085;DHT22;25786;51.504;7.344;2023-06-14T05:44:47;18.10;56.00
40085;DHT22;25786;51.504;7.344;2023-06-14T05:47:12;18.20;55.20
40085;DHT22;25786;51.504;7.344;2023-06-14T05:49:38;18.30;53.40
40085;DHT22;25786;51.504;7.344;2023-06-14T05:52:03;18.50;52.80
40085;DHT22;25786;51.504;7.344;2023-06-14T05:54:29;18.50;52.50
40085;DHT22;25786;51.504;7.344;2023-06-14T05:56:54;18.60;53.00
40085;DHT22;25786;51.504;7.344;2023-06-14T05:59:23;18.40;52.70
40085;DHT22;25786;51.504;7.344;2023-06-14T06:01:48;18.20;53.40
40085;DHT22;25786;51.504;7.344;2023-06-14T06:04:14;18.20;53.30
40085;DHT22;25786;51.504;7.344;2023-06-14T06:06:47;18.20;53.80
40085;DHT22;25786;51.504;7.344;2023-06-14T06:09:13;18.20;54.30
40085;DHT22;25786;51.504;7.344;2023-06-14T06:11:39;18.30;53.40
40085;DHT22;25786;51.504;7.344;2023-06-14T06:14:05;18.30;53.20
40085;DHT22;25786;51.504;7.344;2023-06-14T06:16:30;18.30;52.90
40085;DHT22;25786;51.504;7.344;2023-06-14T06:18:58;18.40;53.50
40085;DHT22;25786;51.504;7.344;2023-06-14T06:21:24;18.50;54.80
40085;DHT22;25786;51.504;7.344;2023-06-14T06:23:50;18.60;53.30
40085;DHT22;25786;51.504;7.344;2023-06-14T06:26:15;18.80;53.80
40085;DHT22;25786;51.504;7.344;2023-06-14T06:28:41;18.80;53.10
40085;DHT22;25786;51.504;7.344;2023-06-14T06:31:06;18.90;53.60
40085;DHT22;25786;51.504;7.344;2023-06-14T06:33:32;18.90;52.10
40085;DHT22;25786;51.504;7.344;2023-06-14T06:35:57;18.90;52.90
40085;DHT22;25786;51.504;7.344;2023-06-14T06:38:23;19.00;52.60
40085;DHT22;25786;51.504;7.344;2023-06-14T06:40:48;18.90;52.60
40085;DHT22;25786;51.504;7.344;2023-06-14T06:43:13;19.00;52.80
40085;DHT22;25786;51.504;7.344;2023-06-14T06:45:39;19.00;51.90
40085;DHT22;25786;51.504;7.344;2023-06-14T06:48:05;19.00;52.70
40085;DHT22;25786;51.504;7.344;2023-06-14T06:50:31;19.00;52.70
40085;DHT22;25786;51.504;7.344;2023-06-14T06:52:56;19.20;52.30
40085;DHT22;25786;51.504;7.344;2023-06-14T06:55:22;19.10;51.40
40085;DHT22;25786;51.504;7.344;2023-06-14T06:57:48;19.20;52.30
40085;DHT22;25786;51.504;7.344;2023-06-14T07:00:15;19.40;52.10
40085;DHT22;25786;51.504;7.344;2023-06-14T07:02:40;19.50;52.60
40085;DHT22;25786;51.504;7.344;2023-06-14T07:05:06;19.50;51.50
40085;DHT22;25786;51.504;7.344;2023-06-14T07:07:32;19.50;51.70
40085;DHT22;25786;51.504;7.344;2023-06-14T07:09:58;19.60;51.40
40085;DHT22;25786;51.504;7.344;2023-06-14T07:12:29;19.50;51.30
40085;DHT22;25786;51.504;7.344;2023-06-14T07:14:55;19.50;51.10
40085;DHT22;25786;51.504;7.344;2023-06-14T07:17:20;19.40;51.40
40085;DHT22;25786;51.504;7.344;2023-06-14T07:19:46;19.50;51.60
40085;DHT22;25786;51.504;7.344;2023-06-14T07:22:11;19.60;51.60
40085;DHT22;25786;51.504;7.344;2023-06-14T07:24:37;19.60;50.80
40085;DHT22;25786;51.504;7.344;2023-06-14T07:27:04;19.50;51.20
40085;DHT22;25786;51.504;7.344;2023-06-14T07:29:37;19.60;50.40
40085;DHT22;25786;51.504;7.344;2023-06-14T07:32:09;19.60;51.60
40085;DHT22;25786;51.504;7.344;2023-06-14T07:34:37;19.60;50.70
40085;DHT22;25786;51.504;7.344;2023-06-14T07:37:04;19.60;51.20
40085;DHT22;25786;51.504;7.344;2023-06-14T07:39:38;19.60;51.00
40085;DHT22;25786;51.504;7.344;2023-06-14T07:42:04;19.60;50.50
40085;DHT22;25786;51.504;7.344;2023-06-14T07:44:30;19.60;50.70
40085;DHT22;25786;51.504;7.344;2023-06-14T07:46:56;19.60;50.60
40085;DHT22;25786;51.504;7.344;2023-06-14T07:49:27;19.60;51.40
40085;DHT22;25786;51.504;7.344;2023-06-14T07:51:53;19.60;50.50
40085;DHT22;25786;51.504;7.344;2023-06-14T07:54:19;19.60;50.90
40085;DHT22;25786;51.504;7.344;2023-06-14T07:56:45;19.50;51.30
40085;DHT22;25786;51.504;7.344;2023-06-14T07:59:11;19.40;51.70
40085;DHT22;25786;51.504;7.344;2023-06-14T08:01:36;19.50;52.10
40085;DHT22;25786;51.504;7.344;2023-06-14T08:04:05;19.60;50.90
40085;DHT22;25786;51.504;7.344;2023-06-14T08:06:31;19.50;51.40
40085;DHT22;25786;51.504;7.344;2023-06-14T08:08:56;19.50;50.30
40085;DHT22;25786;51.504;7.344;2023-06-14T08:11:22;19.60;50.00
40085;DHT22;25786;51.504;7.344;2023-06-14T08:13:49;19.60;48.60
40085;DHT22;25786;51.504;7.344;2023-06-14T08:16:14;19.60;48.80
40085;DHT22;25786;51.504;7.344;2023-06-14T08:18:40;19.60;49.20
40085;DHT22;25786;51.504;7.344;2023-06-14T08:21:05;19.80;50.70
40085;DHT22;25786;51.504;7.344;2023-06-14T08:23:32;20.00;49.20
40085;DHT22;25786;51.504;7.344;2023-06-14T08:25:58;20.00;49.30
40085;DHT22;25786;51.504;7.344;2023-06-14T08:28:24;20.00;49.20
40085;DHT22;25786;51.504;7.344;2023-06-14T08:30:49;20.10;48.50
40085;DHT22;25786;51.504;7.344;2023-06-14T08:33:15;20.10;47.80
40085;DHT22;25786;51.504;7.344;2023-06-14T08:35:40;20.20;47.50
40085;DHT22;25786;51.504;7.344;2023-06-14T08:38:06;20.30;47.90
40085;DHT22;25786;51.504;7.344;2023-06-14T08:40:31;20.20;45.40
40085;DHT22;25786;51.504;7.344;2023-06-14T08:43:02;20.10;45.80
40085;DHT22;25786;51.504;7.344;2023-06-14T08:45:27;20.20;46.60
40085;DHT22;25786;51.504;7.344;2023-06-14T08:47:55;20.10;44.90
40085;DHT22;25786;51.504;7.344;2023-06-14T08:50:25;20.10;46.50
40085;DHT22;25786;51.504;7.344;2023-06-14T08:53:00;20.10;45.60
40085;DHT22;25786;51.504;7.344;2023-06-14T08:55:27;20.10;45.40
40085;DHT22;25786;51.504;7.344;2023-06-14T08:57:53;20.10;45.90
40085;DHT22;25786;51.504;7.344;2023-06-14T09:00:19;20.10;47.00
40085;DHT22;25786;51.504;7.344;2023-06-14T09:02:46;20.10;46.90
40085;DHT22;25786;51.504;7.344;2023-06-14T09:05:11;20.20;45.50
40085;DHT22;25786;51.504;7.344;2023-06-14T09:07:43;20.10;44.60
40085;DHT22;25786;51.504;7.344;2023-06-14T09:10:09;20.10;45.00
40085;DHT22;25786;51.504;7.344;2023-06-14T09:12:36;20.10;46.30
40085;DHT22;25786;51.504;7.344;2023-06-14T09:15:02;20.10;47.10
40085;DHT22;25786;51.504;7.344;2023-06-14T09:17:34;20.20;46.90
40085;DHT22;25786;51.504;7.344;2023-06-14T09:20:02;20.30;46.10
40085;DHT22;25786;51.504;7.344;2023-06-14T09:22:31;20.30;45.60
40085;DHT22;25786;51.504;7.344;2023-06-14T09:24:57;20.40;47.30
40085;DHT22;25786;51.504;7.344;2023-06-14T09:27:22;20.50;46.40
40085;DHT22;25786;51.504;7.344;2023-06-14T09:29:48;20.60;46.60
40085;DHT22;25786;51.504;7.344;2023-06-14T09:32:13;20.70;45.70
40085;DHT22;25786;51.504;7.344;2023-06-14T09:34:39;20.70;46.20
40085;DHT22;25786;51.504;7.344;2023-06-14T09:37:04;20.60;46.30
40085;DHT22;25786;51.504;7.344;2023-06-14T09:39:30;20.80;46.10
40085;DHT22;25786;51.504;7.344;2023-06-14T09:41:55;20.90;44.40
40085;DHT22;25786;51.504;7.344;2023-06-14T09:44:21;20.80;44.20
40085;DHT22;25786;51.504;7.344;2023-06-14T09:46:47;20.80;44.50
40085;DHT22;25786;51.504;7.344;2023-06-14T09:49:13;20.80;46.40
40085;DHT22;25786;51.504;7.344;2023-06-14T09:51:42;20.60;44.80
40085;DHT22;25786;51.504;7.344;2023-06-14T09:54:22;20.50;46.20
40085;DHT22;25786;51.504;7.344;2023-06-14T09:56:50;20.50;46.60
40085;DHT22;25786;51.504;7.344;2023-06-14T09:59:24;20.50;46.80
40085;DHT22;25786;51.504;7.344;2023-06-14T10:01:59;20.50;47.10
40085;DHT22;25786;51.504;7.344;2023-06-14T10:04:31;20.60;47.10
40085;DHT22;25786;51.504;7.344;2023-06-14T10:06:56;20.70;46.90
40085;DHT22;25786;51.504;7.344;2023-06-14T10:09:22;20.80;46.50
40085;DHT22;25786;51.504;7.344;2023-06-14T10:11:48;20.80;47.20
40085;DHT22;25786;51.504;7.344;2023-06-14T10:14:25;20.50;47.50
40085;DHT22;25786;51.504;7.344;2023-06-14T10:16:56;20.50;48.20
40085;DHT22;25786;51.504;7.344;2023-06-14T10:19:34;20.70;47.50
40085;DHT22;25786;51.504;7.344;2023-06-14T10:22:04;21.00;47.30
40085;DHT22;25786;51.504;7.344;2023-06-14T10:24:43;21.10;46.30
40085;DHT22;25786;51.504;7.344;2023-06-14T10:27:13;20.90;48.00
40085;DHT22;25786;51.504;7.344;2023-06-14T10:32:23;21.10;48.10
40085;DHT22;25786;51.504;7.344;2023-06-14T10:34:56;21.00;47.70
40085;DHT22;25786;51.504;7.344;2023-06-14T10:37:22;21.10;47.90
40085;DHT22;25786;51.504;7.344;2023-06-14T10:39:48;21.10;47.20
40085;DHT22;25786;51.504;7.344;2023-06-14T10:42:16;21.10;46.40
40085;DHT22;25786;51.504;7.344;2023-06-14T10:47:21;21.10;47.30
40085;DHT22;25786;51.504;7.344;2023-06-14T10:49:49;21.10;48.30
40085;DHT22;25786;51.504;7.344;2023-06-14T10:52:16;21.10;48.10
40085;DHT22;25786;51.504;7.344;2023-06-14T10:57:29;21.50;48.50
40085;DHT22;25786;51.504;7.344;2023-06-14T10:59:57;21.60;47.30
40085;DHT22;25786;51.504;7.344;2023-06-14T11:05:08;21.30;47.90
40085;DHT22;25786;51.504;7.344;2023-06-14T11:07:48;21.30;47.50
40085;DHT22;25786;51.504;7.344;2023-06-14T11:12:50;21.50;47.50
40085;DHT22;25786;51.504;7.344;2023-06-14T11:15:19;21.50;47.50
40085;DHT22;25786;51.504;7.344;2023-06-14T11:17:52;21.60;47.50
40085;DHT22;25786;51.504;7.344;2023-06-14T11:20:24;21.80;46.50
40085;DHT22;25786;51.504;7.344;2023-06-14T11:22:50;21.60;46.60
40085;DHT22;25786;51.504;7.344;2023-06-14T11:25:16;21.60;47.10
40085;DHT22;25786;51.504;7.344;2023-06-14T11:27:42;21.60;46.60
40085;DHT22;25786;51.504;7.344;2023-06-14T11:30:08;21.50;46.80
40085;DHT22;25786;51.504;7.344;2023-06-14T11:32:37;21.50;46.70
40085;DHT22;25786;51.504;7.344;2023-06-14T11:35:03;21.50;47.40
40085;DHT22;25786;51.504;7.344;2023-06-14T11:37:30;21.50;47.10
40085;DHT22;25786;51.504;7.344;2023-06-14T11:39:56;21.60;46.40
40085;DHT22;25786;51.504;7.344;2023-06-14T11:42:22;21.60;46.70
40085;DHT22;25786;51.504;7.344;2023-06-14T11:44:51;21.70;46.60
40085;DHT22;25786;51.504;7.344;2023-06-14T11:47:16;21.80;47.40
40085;DHT22;25786;51.504;7.344;2023-06-14T11:49:42;22.00;46.80
40085;DHT22;25786;51.504;7.344;2023-06-14T11:52:08;22.10;46.90
40085;DHT22;25786;51.504;7.344;2023-06-14T11:54:34;22.10;46.40
40085;DHT22;25786;51.504;7.344;2023-06-14T11:57:00;22.10;45.30
40085;DHT22;25786;51.504;7.344;2023-06-14T11:59:44;22.00;44.90
40085;DHT22;25786;51.504;7.344;2023-06-14T12:05:03;22.10;47.50
40085;DHT22;25786;51.504;7.344;2023-06-14T12:07:29;22.10;45.20
40085;DHT22;25786;51.504;7.344;2023-06-14T12:12:22;22.00;45.30
40085;DHT22;25786;51.504;7.344;2023-06-14T12:14:49;22.10;45.60
40085;DHT22;25786;51.504;7.344;2023-06-14T12:17:16;22.20;45.30
40085;DHT22;25786;51.504;7.344;2023-06-14T12:19:43;22.30;46.10
40085;DHT22;25786;51.504;7.344;2023-06-14T12:22:09;22.50;45.20
40085;DHT22;25786;51.504;7.344;2023-06-14T12:24:38;22.50;44.70
40085;DHT22;25786;51.504;7.344;2023-06-14T12:27:04;22.30;45.30
40085;DHT22;25786;51.504;7.344;2023-06-14T12:29:30;22.40;45.60
40085;DHT22;25786;51.504;7.344;2023-06-14T12:31:56;22.30;44.60
40085;DHT22;25786;51.504;7.344;2023-06-14T12:34:24;22.30;45.10
40085;DHT22;25786;51.504;7.344;2023-06-14T12:37:00;22.40;44.90
40085;DHT22;25786;51.504;7.344;2023-06-14T12:39:25;22.50;43.80
40085;DHT22;25786;51.504;7.344;2023-06-14T12:41:57;22.60;44.60
40085;DHT22;25786;51.504;7.344;2023-06-14T12:44:23;22.70;44.40
40085;DHT22;25786;51.504;7.344;2023-06-14T12:46:48;22.70;43.60
40085;DHT22;25786;51.504;7.344;2023-06-14T12:49:16;22.50;44.00
40085;DHT22;25786;51.504;7.344;2023-06-14T12:51:45;22.50;44.90
40085;DHT22;25786;51.504;7.344;2023-06-14T12:54:13;22.60;43.50
40085;DHT22;25786;51.504;7.344;2023-06-14T12:56:42;22.60;44.00
40085;DHT22;25786;51.504;7.344;2023-06-14T12:59:10;22.70;44.80
40085;DHT22;25786;51.504;7.344;2023-06-14T13:01:37;22.80;44.80
40085;DHT22;25786;51.504;7.344;2023-06-14T13:04:03;22.80;44.10
40085;DHT22;25786;51.504;7.344;2023-06-14T13:06:28;22.90;44.60
40085;DHT22;25786;51.504;7.344;2023-06-14T13:08:59;23.00;42.70
40085;DHT22;25786;51.504;7.344;2023-06-14T13:11:29;23.10;41.90
40085;DHT22;25786;51.504;7.344;2023-06-14T13:13:54;22.90;43.20
40085;DHT22;25786;51.504;7.344;2023-06-14T13:16:20;22.90;44.10
40085;DHT22;25786;51.504;7.344;2023-06-14T13:18:48;23.00;42.90
40085;DHT22;25786;51.504;7.344;2023-06-14T13:21:14;23.00;43.10
40085;DHT22;25786;51.504;7.344;2023-06-14T13:23:40;22.90;44.10
40085;DHT22;25786;51.504;7.344;2023-06-14T13:26:05;23.00;42.90
40085;DHT22;25786;51.504;7.344;2023-06-14T13:28:31;22.80;42.80
40085;DHT22;25786;51.504;7.344;2023-06-14T13:30:57;23.00;44.40
40085;DHT22;25786;51.504;7.344;2023-06-14T13:33:23;23.00;42.30
40085;DHT22;25786;51.504;7.344;2023-06-14T13:35:49;23.10;42.20
40085;DHT22;25786;51.504;7.344;2023-06-14T13:38:15;22.90;42.80
40085;DHT22;25786;51.504;7.344;2023-06-14T13:40:40;23.00;42.30
40085;DHT22;25786;51.504;7.344;2023-06-14T13:43:06;22.90;42.70
40085;DHT22;25786;51.504;7.344;2023-06-14T13:45:32;23.00;42.20
40085;DHT22;25786;51.504;7.344;2023-06-14T13:47:57;22.90;42.70
40085;DHT22;25786;51.504;7.344;2023-06-14T13:50:23;23.00;42.80
40085;DHT22;25786;51.504;7.344;2023-06-14T13:52:48;23.00;43.30
40085;DHT22;25786;51.504;7.344;2023-06-14T13:55:14;23.00;42.70
40085;DHT22;25786;51.504;7.344;2023-06-14T13:57:39;23.00;43.10
40085;DHT22;25786;51.504;7.344;2023-06-14T14:00:05;23.00;41.60
40085;DHT22;25786;51.504;7.344;2023-06-14T14:02:34;22.80;43.60
40085;DHT22;25786;51.504;7.344;2023-06-14T14:04:59;22.90;43.50
40085;DHT22;25786;51.504;7.344;2023-06-14T14:07:25;23.00;43.20
40085;DHT22;25786;51.504;7.344;2023-06-14T14:09:51;23.10;43.40
40085;DHT22;25786;51.504;7.344;2023-06-14T14:12:16;23.10;42.30
40085;DHT22;25786;51.504;7.344;2023-06-14T14:14:42;23.10;42.70
40085;DHT22;25786;51.504;7.344;2023-06-14T14:17:11;23.10;40.90
40085;DHT22;25786;51.504;7.344;2023-06-14T14:19:37;23.00;42.20
40085;DHT22;25786;51.504;7.344;2023-06-14T14:22:02;23.00;43.00
40085;DHT22;25786;51.504;7.344;2023-06-14T14:24:36;23.10;43.10
40085;DHT22;25786;51.504;7.344;2023-06-14T14:27:02;23.00;43.80
40085;DHT22;25786;51.504;7.344;2023-06-14T14:29:27;23.10;43.10
40085;DHT22;25786;51.504;7.344;2023-06-14T14:31:59;23.20;42.90
40085;DHT22;25786;51.504;7.344;2023-06-14T14:34:31;23.20;41.90
40085;DHT22;25786;51.504;7.344;2023-06-14T14:36:57;23.00;41.40
40085;DHT22;25786;51.504;7.344;2023-06-14T14:39:22;23.20;42.10
40085;DHT22;25786;51.504;7.344;2023-06-14T14:41:48;23.30;41.80
40085;DHT22;25786;51.504;7.344;2023-06-14T14:44:22;23.40;41.70
40085;DHT22;25786;51.504;7.344;2023-06-14T14:46:47;23.50;42.30
40085;DHT22;25786;51.504;7.344;2023-06-14T14:49:13;23.50;42.10
40085;DHT22;25786;51.504;7.344;2023-06-14T14:51:39;23.50;41.00
40085;DHT22;25786;51.504;7.344;2023-06-14T14:54:05;23.50;42.40
40085;DHT22;25786;51.504;7.344;2023-06-14T14:56:52;23.50;40.20
40085;DHT22;25786;51.504;7.344;2023-06-14T14:59:19;23.50;41.50
40085;DHT22;25786;51.504;7.344;2023-06-14T15:01:47;23.50;40.50
40085;DHT22;25786;51.504;7.344;2023-06-14T15:04:16;23.50;40.70
40085;DHT22;25786;51.504;7.344;2023-06-14T15:06:41;23.50;40.60
40085;DHT22;25786;51.504;7.344;2023-06-14T15:09:07;23.50;41.00
40085;DHT22;25786;51.504;7.344;2023-06-14T15:11:41;23.50;40.80
40085;DHT22;25786;51.504;7.344;2023-06-14T15:14:08;23.50;40.50
40085;DHT22;25786;51.504;7.344;2023-06-14T15:16:40;23.60;40.20
40085;DHT22;25786;51.504;7.344;2023-06-14T15:19:07;23.60;40.00
40085;DHT22;25786;51.504;7.344;2023-06-14T15:21:32;23.70;39.80
40085;DHT22;25786;51.504;7.344;2023-06-14T15:23:58;23.70;40.10
40085;DHT22;25786;51.504;7.344;2023-06-14T15:26:23;23.70;41.10
40085;DHT22;25786;51.504;7.344;2023-06-14T15:28:49;23.70;41.00
40085;DHT22;25786;51.504;7.344;2023-06-14T15:31:15;23.80;40.90
40085;DHT22;25786;51.504;7.344;2023-06-14T15:33:47;23.80;40.00
40085;DHT22;25786;51.504;7.344;2023-06-14T15:36:15;23.80;40.50
40085;DHT22;25786;51.504;7.344;2023-06-14T15:38:41;23.70;40.60
40085;DHT22;25786;51.504;7.344;2023-06-14T15:41:06;23.70;39.20
40085;DHT22;25786;51.504;7.344;2023-06-14T15:43:35;23.80;40.00
40085;DHT22;25786;51.504;7.344;2023-06-14T15:46:01;23.70;37.90
40085;DHT22;25786;51.504;7.344;2023-06-14T15:48:26;23.60;38.30